createdAt,value
2019-04-23T00:01:07.513Z,97433.22
2019-04-23T00:04:10.139Z,97427.39
2019-04-23T00:07:36.725Z,97425.50
2019-04-23T00:10:43.116Z,97426.80
2019-04-23T00:13:58.139Z,97429.45
2019-04-23T00:17:15.283Z,97427.47
2019-04-23T00:20:25.914Z,97421.71
2019-04-23T00:23:53.067Z,97415.81
2019-04-23T00:27:10.449Z,97421.02
2019-04-23T00:30:09.963Z,97417.45
2019-04-23T00:33:30.159Z,97417.57
2019-04-23T00:36:45.490Z,97413.83
2019-04-23T00:39:56.556Z,97407.72
2019-04-23T00:46:36.818Z,97417.70
2019-04-23T00:49:53.240Z,97410.19
2019-04-23T00:53:04.081Z,97407.06
2019-04-23T00:59:39.477Z,97403.73
2019-04-23T01:02:53.351Z,97397.30
2019-04-23T01:06:06.490Z,97397.48
2019-04-23T01:09:25.771Z,97398.96
2019-04-23T01:12:46.664Z,97390.20
2019-04-23T01:15:57.747Z,97396.05
2019-04-23T01:22:31.700Z,97385.63
2019-04-23T01:25:56.518Z,97386.83
2019-04-23T01:29:34.069Z,97381.69
2019-04-23T01:32:38.185Z,97384.16
2019-04-23T01:36:11.027Z,97379.28
2019-04-23T01:39:14.400Z,97376.08
2019-04-23T01:42:35.682Z,97374.07
2019-04-23T01:45:35.669Z,97369.20
2019-04-23T01:48:58.328Z,97367.72
2019-04-23T01:52:14.527Z,97364.95
2019-04-23T01:55:33.032Z,97365.47
2019-04-23T02:02:06.574Z,97365.47
2019-04-23T02:05:24.313Z,97364.98
2019-04-23T02:08:36.275Z,97355.34
2019-04-23T02:11:55.152Z,97353.56
2019-04-23T02:15:12.222Z,97351.50
2019-04-23T02:18:23.112Z,97348.48
2019-04-23T02:21:39.885Z,97342.61
2019-04-23T02:24:55.818Z,97340.86
2019-04-23T02:28:25.515Z,97337.52
2019-04-23T02:35:02.364Z,97332.65
2019-04-23T02:38:18.504Z,97331.86
2019-04-23T02:41:16.299Z,97336.27
2019-04-23T02:44:34.241Z,97340.76
2019-04-23T02:47:52.695Z,97337.72
2019-04-23T02:51:03.993Z,97326.98
2019-04-23T02:57:35.574Z,97326.98
2019-04-23T03:01:15.127Z,97325.87
2019-04-23T03:10:40.405Z,97311.45
2019-04-23T03:17:11.158Z,97313.52
2019-04-23T03:27:28.784Z,97312.48
2019-04-23T03:40:40.490Z,97301.57
2019-04-23T03:47:11.474Z,97290.27
2019-04-23T03:53:54.244Z,97282.53
2019-04-23T03:57:06.072Z,97280.32
2019-04-23T04:00:24.986Z,97271.98
2019-04-23T04:03:51.709Z,97278.72
2019-04-23T04:07:05.452Z,97265.56
2019-04-23T04:10:05.410Z,97267.54
2019-04-23T04:13:15.922Z,97260.72
2019-04-23T04:16:30.887Z,97261.07
2019-04-23T04:23:10.683Z,97263.41
2019-04-23T04:29:39.482Z,97259.10
2019-04-23T04:33:02.303Z,97259.56
2019-04-23T04:39:22.569Z,97260.39
2019-04-23T04:42:55.278Z,97250.16
2019-04-23T04:46:04.808Z,97254.33
2019-04-23T04:49:07.901Z,97241.32
2019-04-23T04:52:38.380Z,97243.70
2019-04-23T04:55:47.486Z,97234.16
2019-04-23T04:58:53.309Z,97234.80
2019-04-23T05:02:20.901Z,97240.16
2019-04-23T05:08:52.895Z,97232.83
2019-04-23T05:17:02.921Z,97220.02
2019-04-23T05:20:21.196Z,97220.20
2019-04-23T05:23:51.141Z,97212.31
2019-04-23T05:26:53.430Z,97218.92
2019-04-23T05:30:15.418Z,97214.42
2019-04-23T05:33:29.022Z,97212.62
2019-04-23T05:36:52.093Z,97203.22
2019-04-23T05:39:56.691Z,97202.94
2019-04-23T05:43:13.854Z,97205.62
2019-04-23T05:49:47.598Z,97199.30
2019-04-23T05:53:00.632Z,97198.83
2019-04-23T05:56:14.388Z,97194.50
2019-04-23T05:59:30.109Z,97191.36
2019-04-23T06:02:48.572Z,97196.09
2019-04-23T06:06:10.747Z,97197.95
2019-04-23T06:09:18.963Z,97197.13
2019-04-23T06:12:39.951Z,97200.89
2019-04-23T06:15:55.864Z,97198.39
2019-04-23T06:25:51.043Z,97195.17
2019-04-23T06:29:00.433Z,97191.48
2019-04-23T06:32:06.509Z,97195.91
2019-04-23T06:35:45.471Z,97191.78
2019-04-23T06:38:53.791Z,97186.45
2019-04-23T06:45:14.817Z,97178.73
2019-04-23T06:48:33.801Z,97177.78
2019-04-23T06:51:53.348Z,97173.16
2019-04-23T06:55:03.010Z,97176.00
2019-04-23T06:58:25.965Z,97168.19
2019-04-23T07:01:36.055Z,97164.95
2019-04-23T07:04:56.935Z,97171.20
2019-04-23T07:08:13.603Z,97166.52
2019-04-23T07:11:27.073Z,97167.42
2019-04-23T07:14:44.054Z,97167.31
2019-04-23T07:17:55.507Z,97168.50
2019-04-23T07:21:16.641Z,97152.45
2019-04-23T07:24:21.531Z,97156.11
2019-04-23T07:27:33.234Z,97144.67
2019-04-23T07:31:02.445Z,97139.84
2019-04-23T07:34:26.440Z,97136.30
2019-04-23T07:37:32.084Z,97136.67
2019-04-23T07:41:07.726Z,97136.44
2019-04-23T07:44:14.260Z,97126.96
2019-04-23T07:47:41.740Z,97120.94
2019-04-23T07:51:09.401Z,97123.09
2019-04-23T07:54:25.716Z,97118.03
2019-04-23T07:57:34.043Z,97114.36
2019-04-23T08:00:54.019Z,97117.48
2019-04-23T08:04:09.219Z,97114.45
2019-04-23T08:07:20.036Z,97112.95
2019-04-23T08:10:46.583Z,97111.64
2019-04-23T08:13:58.690Z,97114.07
2019-04-23T08:17:13.942Z,97108.15
2019-04-23T08:20:30.781Z,97103.67
2019-04-23T08:27:22.480Z,97097.81
2019-04-23T08:30:42.378Z,97098.31
2019-04-23T08:34:05.641Z,97103.17
2019-04-23T08:37:18.036Z,97104.55
2019-04-23T08:40:38.192Z,97099.58
2019-04-23T08:44:05.544Z,97107.08
2019-04-23T08:50:29.647Z,97099.72
2019-04-23T09:00:10.771Z,97108.00
2019-04-23T09:06:47.269Z,97103.30
2019-04-23T09:13:40.183Z,97099.09
2019-04-23T09:16:36.188Z,97094.80
2019-04-23T09:22:55.064Z,97099.13
2019-04-23T09:29:41.145Z,97101.36
2019-04-23T09:32:55.554Z,97092.42
2019-04-23T09:36:27.462Z,97090.65
2019-04-23T09:39:49.753Z,97087.28
2019-04-23T09:50:16.015Z,97067.95
2019-04-23T09:57:02.371Z,97066.50
2019-04-23T10:00:10.608Z,97072.20
2019-04-23T10:03:14.665Z,97075.05
2019-04-23T10:06:18.311Z,97079.08
2019-04-23T10:09:27.385Z,97075.71
2019-04-23T10:12:42.074Z,97081.05
2019-04-23T10:15:55.963Z,97092.86
2019-04-23T10:19:10.072Z,97086.22
2019-04-23T10:22:25.137Z,97091.49
2019-04-23T10:25:40.311Z,97076.83
2019-04-23T10:28:58.191Z,97079.78
2019-04-23T10:32:13.484Z,97072.95
2019-04-23T10:35:38.700Z,97068.13
2019-04-23T10:38:54.308Z,97071.66
2019-04-23T10:42:01.203Z,97064.23
2019-04-23T10:45:51.333Z,97062.39
2019-04-23T10:52:48.511Z,97049.25
2019-04-23T10:56:22.088Z,97046.31
2019-04-23T10:59:37.289Z,97043.78
2019-04-23T11:02:48.865Z,97042.83
2019-04-23T11:06:24.506Z,97055.50
2019-04-23T11:19:25.754Z,97052.13
2019-04-23T11:26:06.630Z,97051.02
2019-04-23T11:29:16.824Z,97052.00
2019-04-23T11:32:41.170Z,97050.32
2019-04-23T11:38:02.799Z,97058.23
2019-04-23T11:42:11.542Z,97057.80
2019-04-23T11:45:50.716Z,97060.38
2019-04-23T11:55:39.177Z,97061.70
2019-04-23T11:58:35.977Z,97052.50
2019-04-23T12:02:12.192Z,97055.09
2019-04-23T12:06:07.503Z,97054.66
2019-04-23T12:09:08.035Z,97059.09
2019-04-23T12:12:28.028Z,97071.73
2019-04-23T12:20:33.480Z,97067.46
2019-04-23T12:27:01.972Z,97069.98
2019-04-23T12:30:16.424Z,97067.11
2019-04-23T12:33:36.166Z,97065.23
2019-04-23T12:36:46.706Z,97066.99
2019-04-23T12:46:41.707Z,97066.05
2019-04-23T12:56:42.209Z,97062.30
2019-04-23T12:59:44.708Z,97055.97
2019-04-23T13:03:06.232Z,97047.36
2019-04-23T13:06:08.091Z,97047.12
2019-04-23T13:16:40.535Z,97034.64
2019-04-23T13:19:39.733Z,97031.64
2019-04-23T13:22:47.627Z,97023.32
2019-04-23T13:25:57.123Z,97020.23
2019-04-23T13:29:28.690Z,97015.44
2019-04-23T13:32:43.371Z,97011.88
2019-04-23T13:39:02.365Z,97006.66
2019-04-23T13:42:33.759Z,97008.45
2019-04-23T13:48:46.931Z,97014.48
2019-04-23T13:52:26.337Z,97020.63
2019-04-23T14:02:12.637Z,97004.69
2019-04-23T14:05:33.015Z,96998.95
2019-04-23T14:08:53.897Z,97001.98
2019-04-23T14:11:58.580Z,97006.36
2019-04-23T14:15:34.400Z,97006.44
2019-04-23T14:18:52.160Z,97004.04
2019-04-23T14:21:53.903Z,96999.70
2019-04-23T14:25:10.094Z,96994.80
2019-04-23T14:28:34.338Z,97002.23
2019-04-23T14:31:43.405Z,96999.56
2019-04-23T14:41:26.121Z,97001.48
2019-04-23T14:45:00.675Z,97008.50
2019-04-23T14:51:32.273Z,97010.30
2019-04-23T14:55:25.997Z,97014.20
2019-04-23T14:58:10.481Z,97016.81
2019-04-23T15:01:27.377Z,97015.52
2019-04-23T15:07:52.144Z,97006.31
2019-04-23T15:11:20.979Z,97011.09
2019-04-23T15:14:28.445Z,97006.28
2019-04-23T15:21:19.195Z,97002.25
2019-04-23T15:28:03.422Z,96993.13
2019-04-23T15:30:48.016Z,96988.73
2019-04-23T15:34:07.541Z,96990.07
2019-04-23T15:37:32.894Z,96985.73
2019-04-23T15:40:36.719Z,96983.91
2019-04-23T15:43:57.131Z,96984.39
2019-04-23T15:47:12.523Z,96983.02
2019-04-23T15:50:22.669Z,96988.20
2019-04-23T15:53:31.131Z,96988.16
2019-04-23T15:56:57.361Z,96988.24
2019-04-23T16:00:11.864Z,96987.36
2019-04-23T16:02:54.689Z,96987.46
2019-04-23T16:06:10.836Z,96986.12
2019-04-23T16:09:59.622Z,96976.12
2019-04-23T16:13:12.435Z,96980.91
2019-04-23T16:16:31.595Z,96979.59
2019-04-23T16:19:52.818Z,96982.63
2019-04-23T16:22:55.356Z,96981.36
2019-04-23T16:26:24.091Z,96978.75
2019-04-23T16:29:46.064Z,96982.22
2019-04-23T16:33:03.730Z,96982.66
2019-04-23T16:36:12.652Z,96990.00
2019-04-23T16:39:22.090Z,96985.20
2019-04-23T16:42:47.804Z,96981.30
2019-04-23T16:46:07.268Z,96982.56
2019-04-23T16:49:17.877Z,96982.59
2019-04-23T16:52:26.418Z,96980.48
2019-04-23T16:55:50.042Z,96980.51
2019-04-23T17:02:19.626Z,96970.03
2019-04-23T17:12:10.850Z,96972.05
2019-04-23T17:15:27.409Z,96967.28
2019-04-23T17:18:41.450Z,96969.43
2019-04-23T17:25:15.717Z,96973.17
2019-04-23T17:28:27.771Z,96973.98
2019-04-23T17:38:33.683Z,96969.84
2019-04-23T17:48:49.430Z,96980.77
2019-04-23T17:52:14.411Z,96979.67
2019-04-23T17:55:21.900Z,96985.97
2019-04-23T18:02:18.264Z,96989.83
2019-04-23T18:05:14.686Z,96998.22
2019-04-23T18:08:27.137Z,96998.80
2019-04-23T18:11:35.716Z,96999.89
2019-04-23T18:14:52.201Z,97004.01
2019-04-23T18:18:13.633Z,97007.22
2019-04-23T18:25:08.229Z,97013.44
2019-04-23T18:28:26.059Z,97013.09
2019-04-23T18:31:56.964Z,97014.59
2019-04-23T18:35:15.303Z,97017.86
2019-04-23T18:38:24.842Z,97020.31
2019-04-23T18:41:35.207Z,97020.88
2019-04-23T18:48:38.841Z,97034.77
2019-04-23T18:51:42.724Z,97036.39
2019-04-23T18:54:55.673Z,97042.34
2019-04-23T18:58:13.375Z,97045.25
2019-04-23T19:01:36.746Z,97048.47
2019-04-23T19:05:08.536Z,97051.92
2019-04-23T19:08:32.157Z,97060.38
2019-04-23T19:15:09.252Z,97068.59
2019-04-23T19:18:22.322Z,97071.17
2019-04-23T19:24:45.143Z,97068.71
2019-04-23T19:28:13.332Z,97062.41
2019-04-23T19:31:53.280Z,97066.82
2019-04-23T19:34:52.993Z,97070.31
2019-04-23T19:38:13.420Z,97068.36
2019-04-23T19:41:37.338Z,97069.63
2019-04-23T19:44:43.852Z,97075.70
2019-04-23T19:48:07.081Z,97075.81
2019-04-23T19:51:17.257Z,97077.55
2019-04-23T19:54:42.684Z,97076.98
2019-04-23T20:04:18.238Z,97087.52
2019-04-23T20:07:42.730Z,97085.48
2019-04-23T20:10:50.145Z,97093.55
2019-04-23T20:14:02.049Z,97090.56
2019-04-23T20:20:42.692Z,97096.75
2019-04-23T20:27:15.508Z,97101.30
2019-04-23T20:31:16.410Z,97100.69
2019-04-23T20:37:44.584Z,97099.33
2019-04-23T20:40:51.561Z,97102.88
2019-04-23T20:44:03.297Z,97100.75
2019-04-23T20:50:33.778Z,97101.42
2019-04-23T20:54:00.235Z,97106.42
2019-04-23T20:57:41.420Z,97105.72
2019-04-23T21:01:00.341Z,97101.49
2019-04-23T21:04:28.175Z,97102.72
2019-04-23T21:07:42.461Z,97102.72
2019-04-23T21:10:53.722Z,97100.66
2019-04-23T21:16:56.048Z,97091.10
2019-04-23T21:23:38.389Z,97103.09
2019-04-23T21:26:52.783Z,97105.18
2019-04-23T21:33:15.736Z,97104.12
2019-04-23T21:36:53.643Z,97114.33
2019-04-23T21:40:48.916Z,97112.69
2019-04-23T21:44:05.474Z,97119.66
2019-04-23T21:46:58.818Z,97115.75
2019-04-23T21:50:19.176Z,97118.44
2019-04-23T21:53:33.984Z,97116.70
2019-04-23T21:56:44.502Z,97111.64
2019-04-23T21:59:59.417Z,97117.72
2019-04-23T22:03:17.926Z,97112.39
2019-04-23T22:13:10.923Z,97120.08
2019-04-23T22:19:26.796Z,97124.97
2019-04-23T22:26:14.623Z,97128.52
2019-04-23T22:36:04.602Z,97131.88
2019-04-23T22:39:10.142Z,97125.25
2019-04-23T22:42:41.196Z,97117.08
2019-04-23T22:45:43.082Z,97122.91
2019-04-23T22:49:17.976Z,97128.11
2019-04-23T22:52:21.626Z,97133.55
2019-04-23T22:55:40.437Z,97122.98
2019-04-23T22:59:01.489Z,97127.48
2019-04-23T23:02:25.509Z,97128.57
2019-04-23T23:09:20.958Z,97131.44
2019-04-23T23:12:19.661Z,97132.64
2019-04-23T23:15:42.026Z,97138.25
2019-04-23T23:18:59.880Z,97134.73
2019-04-23T23:22:10.226Z,97132.78
2019-04-23T23:32:00.225Z,97136.63
2019-04-23T23:41:44.031Z,97131.33
2019-04-23T23:45:03.516Z,97128.55
2019-04-23T23:48:16.252Z,97128.95
2019-04-23T23:51:29.453Z,97130.36
2019-04-23T23:54:43.857Z,97131.17
2019-04-23T23:58:10.956Z,97136.97
